Time;durP1;ratioP1;P1;durP2;ratioP2;P2;SDS_P1;SDS_P2;PMS_P1;PMS_P2;Temp;Humidity;BMP_temperature;BMP_pressure;BME280_temperature;BME280_humidity;BME280_pressure;Samples;Min_cycle;Max_cycle;Signal;HPM_P1;HPM_P2
2022/01/17 00:01:38;;;;;;;0.20;0.10;;;;;;;4.35;100.00;101776.50;5064062;28;20506;-51
2022/01/17 00:04:06;;;;;;;0.20;0.10;;;;;;;4.45;100.00;101774.94;5068324;28;20509;-51
2022/01/17 00:06:33;;;;;;;0.20;0.10;;;;;;;4.47;100.00;101784.63;5067446;28;20515;-51
2022/01/17 00:08:59;;;;;;;0.20;0.10;;;;;;;4.47;100.00;101784.63;5061419;28;20531;-51
2022/01/17 00:11:26;;;;;;;0.20;0.10;;;;;;;4.44;100.00;101789.84;5059998;28;20482;-51
2022/01/17 00:13:53;;;;;;;0.30;0.20;;;;;;;4.44;100.00;101781.06;5067714;28;20473;-51
2022/01/17 00:16:24;;;;;;;0.20;0.10;;;;;;;4.32;100.00;101780.81;5067827;28;20449;-51
2022/01/17 00:21:18;;;;;;;0.20;0.20;;;;;;;4.45;100.00;101789.00;5060684;28;20454;-52
2022/01/17 00:23:45;;;;;;;0.20;0.10;;;;;;;4.54;100.00;101776.88;5067440;28;20447;-51
2022/01/17 00:26:11;;;;;;;0.20;0.10;;;;;;;4.39;100.00;101780.97;5067621;28;20508;-51
2022/01/17 00:28:38;;;;;;;0.20;0.10;;;;;;;4.50;100.00;101781.19;5059950;28;20469;-51
2022/01/17 00:31:05;;;;;;;0.20;0.10;;;;;;;4.58;100.00;101789.25;5061394;28;20859;-51
2022/01/17 00:33:34;;;;;;;0.20;0.10;;;;;;;4.41;100.00;101781.00;5068531;28;20462;-51
2022/01/17 00:36:01;;;;;;;0.20;0.10;;;;;;;4.32;100.00;101768.53;5068586;28;20466;-51
2022/01/17 00:38:27;;;;;;;0.20;0.20;;;;;;;4.50;100.00;101780.28;5061382;28;20496;-52
2022/01/17 00:40:54;;;;;;;0.20;0.20;;;;;;;4.38;100.00;101784.44;5060549;28;20485;-51
2022/01/17 00:43:21;;;;;;;0.20;0.10;;;;;;;4.69;100.00;101785.97;5066251;28;20450;-51
2022/01/17 00:45:48;;;;;;;0.20;0.10;;;;;;;4.63;100.00;101803.38;5046979;28;20452;-52
2022/01/17 00:48:15;;;;;;;0.20;0.10;;;;;;;4.54;100.00;101801.47;5061383;28;20559;-51
2022/01/17 00:50:41;;;;;;;0.20;0.17;;;;;;;4.50;100.00;101811.88;5060023;28;20447;-52
2022/01/17 00:53:09;;;;;;;0.20;0.10;;;;;;;4.45;100.00;101807.44;5065812;28;20474;-51
2022/01/17 00:55:37;;;;;;;0.20;0.10;;;;;;;4.44;100.00;101808.28;5066822;28;20446;-51
2022/01/17 00:58:05;;;;;;;0.20;0.10;;;;;;;4.52;100.00;101802.28;5061823;28;20446;-51
2022/01/17 01:00:33;;;;;;;0.20;0.10;;;;;;;4.42;100.00;101799.47;5060147;28;20454;-51
2022/01/17 01:03:00;;;;;;;0.20;0.10;;;;;;;4.46;100.00;101790.78;5064401;28;20478;-51
2022/01/17 01:05:27;;;;;;;1.90;1.80;;;;;;;4.45;100.00;101790.75;5066714;28;20446;-51
2022/01/17 01:07:54;;;;;;;0.20;0.10;;;;;;;4.54;100.00;101790.06;5062558;28;20449;-51
2022/01/17 01:10:21;;;;;;;0.20;0.10;;;;;;;4.53;100.00;101785.66;5057336;28;21186;-51
2022/01/17 01:12:50;;;;;;;0.27;0.17;;;;;;;4.78;100.00;101779.97;5064106;28;20489;-51
2022/01/17 01:15:33;;;;;;;0.20;0.17;;;;;;;4.64;100.00;101777.06;5059612;28;20446;-51
2022/01/17 01:18:11;;;;;;;0.20;0.10;;;;;;;4.67;100.00;101771.00;5072910;28;20465;-53
2022/01/17 01:28:41;;;;;;;0.30;0.23;;;;;;;4.64;100.00;101778.81;5060902;28;20986;-51
2022/01/17 01:31:27;;;;;;;0.20;0.10;;;;;;;4.57;100.00;101782.22;5059463;28;20474;-51
2022/01/17 01:33:55;;;;;;;0.20;0.20;;;;;;;4.71;100.00;101778.09;5061916;28;20837;-51
2022/01/17 01:36:27;;;;;;;0.20;0.10;;;;;;;4.86;100.00;101793.31;5066437;28;20494;-51
2022/01/17 01:38:54;;;;;;;0.20;0.10;;;;;;;4.82;100.00;101808.16;5045577;28;21019;-51
2022/01/17 01:41:21;;;;;;;0.93;0.93;;;;;;;4.65;100.00;101812.19;5058778;28;20442;-51
2022/01/17 01:43:48;;;;;;;0.20;0.10;;;;;;;4.64;100.00;101815.69;5060102;28;20455;-51
2022/01/17 01:46:18;;;;;;;0.20;0.10;;;;;;;4.68;100.00;101820.19;5048957;28;20991;-51
2022/01/17 01:48:46;;;;;;;1.37;0.40;;;;;;;4.82;100.00;101823.97;5065338;28;20991;-51
2022/01/17 01:51:14;;;;;;;0.20;0.10;;;;;;;4.60;100.00;101829.66;5060144;28;20493;-51
2022/01/17 01:53:41;;;;;;;0.20;0.20;;;;;;;4.48;100.00;101822.38;5061188;28;21021;-51
2022/01/17 01:56:08;;;;;;;0.20;0.10;;;;;;;4.55;100.00;101819.03;5066117;28;20443;-51
2022/01/17 01:58:34;;;;;;;0.20;0.10;;;;;;;4.56;100.00;101825.19;5065945;28;20519;-51
2022/01/17 02:01:01;;;;;;;0.20;0.10;;;;;;;4.51;100.00;101822.44;5058893;28;20450;-51
2022/01/17 02:03:28;;;;;;;0.20;0.10;;;;;;;4.49;100.00;101824.16;5059246;28;20454;-51
2022/01/17 02:05:55;;;;;;;0.20;0.10;;;;;;;4.50;100.00;101828.56;5064607;28;20443;-51
2022/01/17 02:08:21;;;;;;;0.20;0.10;;;;;;;4.52;100.00;101832.13;5065748;28;20559;-51
2022/01/17 02:10:48;;;;;;;0.20;0.10;;;;;;;4.48;100.00;101830.28;5052793;28;20993;-52
2022/01/17 02:13:14;;;;;;;0.20;0.10;;;;;;;4.83;100.00;101830.13;5065590;28;20551;-51
2022/01/17 02:15:43;;;;;;;0.27;0.17;;;;;;;4.70;100.00;101823.72;5060209;28;20445;-51
2022/01/17 02:18:12;;;;;;;0.20;0.20;;;;;;;4.49;100.00;101818.00;5058503;28;20968;-52
2022/01/17 02:23:09;;;;;;;0.20;0.10;;;;;;;4.65;100.00;101817.47;5065625;28;20499;-51
2022/01/17 02:25:36;;;;;;;0.20;0.10;;;;;;;4.72;100.00;101807.09;5052334;28;21014;-51
2022/01/17 02:28:03;;;;;;;0.20;0.10;;;;;;;4.96;100.00;101805.81;5065348;28;20458;-51
2022/01/17 02:30:33;;;;;;;0.30;0.20;;;;;;;4.87;100.00;101806.50;5061999;28;20507;-51
2022/01/17 02:33:01;;;;;;;0.20;0.10;;;;;;;4.69;100.00;101801.78;5058715;28;20517;-51
2022/01/17 02:35:28;;;;;;;0.57;0.57;;;;;;;4.63;100.00;101788.47;5061468;28;20446;-51
2022/01/17 02:37:59;;;;;;;0.20;0.10;;;;;;;4.74;100.00;101780.78;5065311;28;20458;-51
2022/01/17 02:40:26;;;;;;;0.20;0.10;;;;;;;4.60;100.00;101777.88;5063506;28;20477;-51
2022/01/17 02:43:13;;;;;;;0.20;0.10;;;;;;;4.47;100.00;101766.22;5058484;28;20454;-51
2022/01/17 02:48:27;;;;;;;0.20;0.10;;;;;;;4.75;100.00;101772.91;5063246;28;20815;-51
2022/01/17 02:50:55;;;;;;;0.20;0.20;;;;;;;4.71;100.00;101770.19;5065425;28;20442;-51
2022/01/17 02:53:23;;;;;;;0.20;0.10;;;;;;;4.67;100.00;101766.63;5062990;28;20489;-51
2022/01/17 02:55:59;;;;;;;0.20;0.10;;;;;;;4.59;100.00;101772.59;5058656;28;20450;-51
2022/01/17 02:58:28;;;;;;;0.20;0.10;;;;;;;4.54;100.00;101775.13;5059519;28;20500;-51
2022/01/17 03:00:57;;;;;;;0.20;0.10;;;;;;;4.71;100.00;101775.47;5067257;28;20447;-52
2022/01/17 03:03:26;;;;;;;0.20;0.10;;;;;;;4.47;100.00;101778.50;5068919;28;20833;-51
2022/01/17 03:05:55;;;;;;;0.20;0.10;;;;;;;4.58;100.00;101769.06;5069088;28;20511;-51
2022/01/17 03:08:24;;;;;;;0.20;0.10;;;;;;;4.58;100.00;101786.63;5069312;28;20519;-51
2022/01/17 03:10:53;;;;;;;0.20;0.10;;;;;;;4.67;100.00;101790.31;5055867;28;20442;-51
2022/01/17 03:13:26;;;;;;;2.73;1.07;;;;;;;4.83;100.00;101770.44;5068982;28;20493;-51
2022/01/17 03:15:56;;;;;;;0.20;0.10;;;;;;;4.58;100.00;101771.69;5065084;28;20442;-51
2022/01/17 03:18:36;;;;;;;0.20;0.10;;;;;;;4.58;100.00;101792.75;5058592;28;20478;-51
2022/01/17 03:21:04;;;;;;;0.20;0.10;;;;;;;4.51;100.00;101787.34;5067653;28;20891;-51
2022/01/17 03:23:31;;;;;;;0.20;0.10;;;;;;;4.50;100.00;101773.28;5062061;28;20445;-51
2022/01/17 03:25:58;;;;;;;0.30;0.20;;;;;;;4.71;100.00;101775.47;5063077;28;20450;-51
2022/01/17 03:28:25;;;;;;;0.93;0.93;;;;;;;4.45;100.00;101782.84;5068511;28;20470;-51
2022/01/17 03:30:53;;;;;;;0.20;0.20;;;;;;;4.55;100.00;101786.56;5067937;28;20453;-51
2022/01/17 03:33:20;;;;;;;0.20;0.10;;;;;;;4.77;100.00;101765.03;5061700;28;20489;-51
2022/01/17 03:35:47;;;;;;;0.20;0.10;;;;;;;4.59;100.00;101764.69;5061838;28;20527;-53
2022/01/17 03:38:18;;;;;;;0.20;0.10;;;;;;;4.56;100.00;101775.16;5068305;28;20450;-51
2022/01/17 03:40:50;;;;;;;0.20;0.10;;;;;;;4.59;100.00;101760.31;5068305;28;20450;-51
2022/01/17 03:43:18;;;;;;;0.20;0.10;;;;;;;4.80;100.00;101759.84;5063358;28;20438;-51
2022/01/17 03:45:45;;;;;;;0.20;0.10;;;;;;;4.65;100.00;101757.78;5062280;28;20447;-51
2022/01/17 03:48:14;;;;;;;1.67;1.60;;;;;;;4.69;100.00;101753.47;5066749;28;20451;-51
2022/01/17 03:50:41;;;;;;;0.20;0.20;;;;;;;4.74;100.00;101767.63;5068437;28;20450;-51
2022/01/17 03:53:09;;;;;;;0.20;0.13;;;;;;;4.67;100.00;101771.00;5063361;28;20517;-52
2022/01/17 03:55:36;;;;;;;0.20;0.10;;;;;;;4.45;100.00;101774.94;5061226;28;20823;-52
2022/01/17 03:58:07;;;;;;;0.20;0.10;;;;;;;4.21;100.00;101774.44;5065482;28;20508;-51
2022/01/17 04:00:39;;;;;;;0.20;0.10;;;;;;;4.40;100.00;101774.88;5068547;28;20918;-51
2022/01/17 04:03:06;;;;;;;0.20;0.10;;;;;;;4.41;100.00;101765.22;5065551;28;20442;-51
2022/01/17 04:05:33;;;;;;;0.20;0.10;;;;;;;4.36;100.00;101766.84;5061251;28;20532;-51
2022/01/17 04:07:59;;;;;;;0.20;0.10;;;;;;;4.42;100.00;101774.88;5063610;28;20447;-52
2022/01/17 04:10:26;;;;;;;0.20;0.10;;;;;;;4.21;100.00;101767.41;5065661;28;20435;-51
2022/01/17 04:13:00;;;;;;;0.20;0.10;;;;;;;4.50;100.00;101764.50;5066044;28;20485;-51
2022/01/17 04:15:28;;;;;;;0.20;0.10;;;;;;;4.44;100.00;101758.25;5060841;28;21008;-51
2022/01/17 04:17:56;;;;;;;0.20;0.10;;;;;;;4.39;100.00;101764.31;5061766;28;20508;-51
2022/01/17 04:20:28;;;;;;;0.30;0.20;;;;;;;4.45;100.00;101774.94;5067692;28;20867;-51
2022/01/17 04:22:57;;;;;;;0.20;0.10;;;;;;;4.53;100.00;101778.63;5067442;28;20441;-51
2022/01/17 04:25:26;;;;;;;0.20;0.10;;;;;;;4.52;100.00;101770.66;5062915;28;20446;-51
2022/01/17 04:27:53;;;;;;;0.20;0.10;;;;;;;4.65;100.00;101776.22;5060741;28;20477;-51
2022/01/17 04:30:20;;;;;;;0.20;0.10;;;;;;;4.54;100.00;101780.41;5066124;28;20466;-54
2022/01/17 04:32:48;;;;;;;0.20;0.10;;;;;;;4.42;100.00;101783.69;5067265;28;20571;-54
2022/01/17 04:35:20;;;;;;;0.20;0.10;;;;;;;4.31;100.00;101784.31;5062753;28;20450;-54
2022/01/17 04:37:59;;;;;;;0.20;0.10;;;;;;;4.26;100.00;101792.13;5060501;28;20939;-54
2022/01/17 04:40:33;;;;;;;0.27;0.17;;;;;;;4.26;100.00;101799.13;5062546;28;20504;-54
2022/01/17 04:43:02;;;;;;;0.20;0.10;;;;;;;4.20;100.00;101802.50;5067377;28;20458;-53
2022/01/17 04:45:29;;;;;;;0.20;0.10;;;;;;;4.44;100.00;101804.75;5049950;28;20510;-55
2022/01/17 04:47:56;;;;;;;0.20;0.10;;;;;;;4.28;100.00;101815.81;5070081;28;20474;-54
2022/01/17 04:50:25;;;;;;;0.67;0.67;;;;;;;4.20;100.00;101804.22;5066591;28;20500;-54
2022/01/17 04:52:57;;;;;;;0.20;0.10;;;;;;;4.33;100.00;101803.66;5066749;28;20522;-54
2022/01/17 04:55:25;;;;;;;0.20;0.10;;;;;;;4.27;100.00;101790.38;5066822;28;20931;-54
2022/01/17 04:57:52;;;;;;;0.73;0.70;;;;;;;4.25;100.00;101810.47;5061238;28;20477;-54
2022/01/17 05:00:20;;;;;;;0.20;0.10;;;;;;;4.42;100.00;101801.22;5059910;28;20475;-54
2022/01/17 05:02:47;;;;;;;0.20;0.10;;;;;;;4.32;100.00;101804.50;5065403;28;20501;-54
2022/01/17 05:05:15;;;;;;;0.20;0.10;;;;;;;4.25;100.00;101815.72;5066907;28;20454;-54
2022/01/17 05:07:41;;;;;;;0.20;0.10;;;;;;;4.29;100.00;101815.84;5061942;28;20449;-54
2022/01/17 05:10:11;;;;;;;0.20;0.10;;;;;;;4.43;100.00;101800.34;5056295;28;20470;-54
2022/01/17 05:12:38;;;;;;;0.20;0.10;;;;;;;4.51;100.00;101777.69;5062794;28;20484;-54
2022/01/17 05:15:12;;;;;;;0.20;0.10;;;;;;;4.36;100.00;101783.53;5059416;28;20446;-54
2022/01/17 05:17:44;;;;;;;0.20;0.10;;;;;;;4.51;100.00;101782.06;5062404;28;20459;-54
2022/01/17 05:20:11;;;;;;;0.20;0.10;;;;;;;4.39;100.00;101780.09;5066366;28;20497;-54
2022/01/17 05:22:40;;;;;;;0.20;0.10;;;;;;;4.55;100.00;101779.53;5063126;28;20442;-54
2022/01/17 05:25:10;;;;;;;0.20;0.10;;;;;;;4.74;100.00;101775.50;5059339;28;20513;-54
2022/01/17 05:27:38;;;;;;;0.20;0.10;;;;;;;4.37;100.00;101777.41;5060364;28;20447;-54
2022/01/17 05:30:08;;;;;;;0.20;0.10;;;;;;;4.32;100.00;101778.19;5066149;28;20486;-54
2022/01/17 05:32:36;;;;;;;0.20;0.10;;;;;;;4.31;100.00;101782.56;5066373;28;20490;-54
2022/01/17 05:35:04;;;;;;;0.20;0.10;;;;;;;4.32;100.00;101794.84;5066204;28;20459;-54
2022/01/17 05:37:33;;;;;;;0.20;0.10;;;;;;;4.32;100.00;101802.75;5066146;28;20951;-54
2022/01/17 05:40:00;;;;;;;0.20;0.10;;;;;;;4.51;100.00;101806.66;5059731;28;21118;-54
2022/01/17 05:42:26;;;;;;;0.20;0.10;;;;;;;4.42;100.00;101801.22;5059147;28;20951;-54
2022/01/17 05:44:54;;;;;;;0.30;0.20;;;;;;;4.27;100.00;101793.88;5065358;28;20450;-54
2022/01/17 05:47:21;;;;;;;0.20;0.10;;;;;;;4.39;100.00;101796.78;5065881;28;20461;-54
2022/01/17 05:49:48;;;;;;;0.30;0.20;;;;;;;4.49;100.00;101805.72;5060434;28;20474;-54
2022/01/17 05:52:15;;;;;;;0.20;0.10;;;;;;;4.45;100.00;101817.06;5058573;28;20451;-54
2022/01/17 05:54:43;;;;;;;0.20;0.10;;;;;;;4.50;100.00;101831.19;5064655;28;20885;-54
2022/01/17 05:57:10;;;;;;;0.33;0.33;;;;;;;4.43;100.00;101832.84;5065672;28;20906;-54
2022/01/17 05:59:37;;;;;;;0.90;0.90;;;;;;;4.65;100.00;101838.53;5060929;28;20470;-54
2022/01/17 06:02:07;;;;;;;0.20;0.10;;;;;;;4.68;100.00;101835.97;5058871;28;20873;-54
2022/01/17 06:04:34;;;;;;;0.20;0.10;;;;;;;4.78;100.00;101831.75;5063144;28;20500;-54
2022/01/17 06:07:02;;;;;;;0.20;0.10;;;;;;;4.56;100.00;101826.09;5065418;28;20523;-54
2022/01/17 06:09:29;;;;;;;0.20;0.10;;;;;;;4.41;100.00;101818.75;5061550;28;20519;-54
2022/01/17 06:11:56;;;;;;;0.20;0.10;;;;;;;4.39;100.00;101822.22;5057277;28;20570;-54
2022/01/17 06:14:24;;;;;;;0.20;0.10;;;;;;;4.35;100.00;101808.06;5061354;28;20545;-54
2022/01/17 06:16:50;;;;;;;0.20;0.10;;;;;;;4.27;100.00;101796.53;5065085;28;20458;-54
2022/01/17 06:19:17;;;;;;;0.20;0.10;;;;;;;4.23;100.00;101788.50;5063226;28;20498;-54
2022/01/17 06:21:45;;;;;;;0.30;0.30;;;;;;;4.26;100.00;101786.84;5058651;28;21176;-54
2022/01/17 06:24:16;;;;;;;0.20;0.10;;;;;;;4.24;100.00;101791.16;5060407;28;20954;-54
2022/01/17 06:26:43;;;;;;;0.20;0.10;;;;;;;4.47;100.00;101795.16;5065342;28;20502;-54
2022/01/17 06:29:12;;;;;;;0.30;0.20;;;;;;;4.30;100.00;101806.22;5064367;28;20465;-54
2022/01/17 06:31:40;;;;;;;0.83;0.83;;;;;;;4.22;100.00;101808.66;5058440;28;20461;-54
2022/01/17 06:34:06;;;;;;;0.20;0.10;;;;;;;4.25;100.00;101821.00;5059320;28;20899;-54
2022/01/17 06:36:33;;;;;;;0.20;0.10;;;;;;;4.37;100.00;101830.06;5069753;28;20451;-54
2022/01/17 06:39:00;;;;;;;1.43;1.43;;;;;;;4.40;100.00;101839.78;5069547;28;20501;-54
2022/01/17 06:41:27;;;;;;;0.20;0.10;;;;;;;4.41;100.00;101838.94;5069196;28;20936;-54
2022/01/17 06:43:54;;;;;;;0.20;0.10;;;;;;;4.44;100.00;101831.09;5069292;28;20450;-54
2022/01/17 06:46:22;;;;;;;2.10;1.07;;;;;;;4.45;100.00;101831.13;5062991;28;20457;-54
2022/01/17 06:48:48;;;;;;;0.20;0.10;;;;;;;4.45;100.00;101825.84;5062541;28;20509;-54
2022/01/17 06:51:16;;;;;;;0.20;0.10;;;;;;;4.37;100.00;101814.25;5069282;28;20451;-54
2022/01/17 06:53:42;;;;;;;0.20;0.10;;;;;;;4.51;100.00;101803.13;5069202;28;20543;-54
2022/01/17 06:56:09;;;;;;;0.30;0.20;;;;;;;4.58;100.00;101808.56;5062968;28;20544;-54
2022/01/17 06:58:36;;;;;;;0.20;0.10;;;;;;;4.40;100.00;101814.34;5062122;28;20517;-54
2022/01/17 07:01:04;;;;;;;0.20;0.10;;;;;;;4.55;100.00;101805.88;5068220;28;20482;-54
2022/01/17 07:03:31;;;;;;;0.20;0.10;;;;;;;4.66;100.00;101814.88;5069271;28;20529;-54
2022/01/17 07:05:58;;;;;;;0.20;0.10;;;;;;;4.57;100.00;101821.69;5062861;28;20476;-54
2022/01/17 07:08:25;;;;;;;0.20;0.10;;;;;;;4.74;100.00;101838.72;5062235;28;20879;-54
2022/01/17 07:10:52;;;;;;;0.20;0.10;;;;;;;4.65;100.00;101852.59;5065407;28;20454;-54
2022/01/17 07:13:19;;;;;;;0.20;0.10;;;;;;;4.66;100.00;101848.19;5068579;28;20884;-54
2022/01/17 07:15:45;;;;;;;0.20;0.10;;;;;;;4.70;100.00;101852.69;5064182;28;20453;-54
2022/01/17 07:18:13;;;;;;;0.20;0.10;;;;;;;4.70;100.00;101865.88;5061404;28;20821;-54
2022/01/17 07:20:45;;;;;;;0.20;0.10;;;;;;;4.75;100.00;101883.53;5065770;28;20512;-54
2022/01/17 07:23:12;;;;;;;0.20;0.10;;;;;;;4.79;100.00;101889.75;5068555;28;20940;-54
2022/01/17 07:25:38;;;;;;;0.20;0.10;;;;;;;4.80;100.00;101883.66;5065397;28;20505;-54
2022/01/17 07:28:07;;;;;;;0.20;0.10;;;;;;;4.85;100.00;101879.34;5061285;28;20805;-54
2022/01/17 07:30:34;;;;;;;0.83;0.83;;;;;;;4.80;100.00;101859.03;5064777;28;20447;-54
2022/01/17 07:33:02;;;;;;;0.20;0.10;;;;;;;4.92;100.00;101856.63;5068524;28;20490;-54
2022/01/17 07:35:29;;;;;;;0.20;0.10;;;;;;;5.02;100.00;101848.94;5065897;28;20492;-54
2022/01/17 07:37:56;;;;;;;0.30;0.20;;;;;;;4.98;100.00;101856.78;5053773;28;20459;-54
2022/01/17 07:40:23;;;;;;;0.20;0.10;;;;;;;4.93;100.00;101859.28;5052778;28;20457;-54
2022/01/17 07:42:50;;;;;;;0.20;0.10;;;;;;;5.04;100.00;101864.78;5068172;28;20447;-54
2022/01/17 07:45:18;;;;;;;0.20;0.10;;;;;;;4.98;100.00;101860.28;5065029;28;20550;-54
2022/01/17 07:50:22;;;;;;;0.30;0.20;;;;;;;5.00;100.00;101874.38;5062051;28;20463;-54
2022/01/17 07:52:50;;;;;;;2.73;1.10;;;;;;;5.23;100.00;101859.03;5067988;28;20446;-54
2022/01/17 07:55:18;;;;;;;0.30;0.10;;;;;;;5.22;100.00;101870.44;5067851;28;20503;-53
2022/01/17 07:57:46;;;;;;;0.20;0.10;;;;;;;5.18;100.00;101875.59;5062393;28;20458;-54
2022/01/17 08:00:22;;;;;;;0.20;0.10;;;;;;;5.30;100.00;101875.81;5061145;28;20516;-54
2022/01/17 08:02:50;;;;;;;0.20;0.10;;;;;;;5.12;100.00;101880.75;5065532;28;20625;-54
2022/01/17 08:05:18;;;;;;;0.20;0.10;;;;;;;5.15;100.00;101878.16;5067936;28;20450;-54
2022/01/17 08:07:45;;;;;;;0.20;0.10;;;;;;;5.28;100.00;101878.44;5057316;28;20509;-54
2022/01/17 08:10:12;;;;;;;0.20;0.10;;;;;;;5.22;100.00;101885.34;5050867;28;20963;-54
2022/01/17 08:12:41;;;;;;;0.20;0.10;;;;;;;5.29;100.00;101884.59;5064231;28;21032;-55
2022/01/17 08:15:09;;;;;;;0.20;0.10;;;;;;;5.51;100.00;101892.06;5060715;28;20441;-55
2022/01/17 08:17:35;;;;;;;0.20;0.10;;;;;;;5.59;100.00;101889.53;5063719;28;20484;-55
2022/01/17 08:20:04;;;;;;;0.20;0.10;;;;;;;5.58;100.00;101888.63;5067531;28;20467;-55
2022/01/17 08:22:30;;;;;;;0.20;0.10;;;;;;;5.73;100.00;101890.66;5064799;28;20500;-55
2022/01/17 08:24:57;;;;;;;0.20;0.10;;;;;;;5.62;100.00;101900.16;5060705;28;20465;-55
2022/01/17 08:27:24;;;;;;;0.20;0.10;;;;;;;5.60;100.00;101897.47;5063548;28;20486;-55
2022/01/17 08:29:50;;;;;;;0.20;0.10;;;;;;;5.72;100.00;101888.88;5067365;28;20521;-55
2022/01/17 08:32:37;;;;;;;0.20;0.10;;;;;;;5.73;100.00;101884.50;5067697;28;20537;-55
2022/01/17 08:35:04;;;;;;;0.20;0.10;;;;;;;5.58;100.00;101882.47;5060743;28;21048;-55
2022/01/17 08:37:31;;;;;;;0.20;0.10;;;;;;;5.66;100.00;101875.59;5060439;28;20522;-55
2022/01/17 08:40:00;;;;;;;0.20;0.10;;;;;;;5.72;100.00;101875.69;5066343;28;20521;-55
2022/01/17 08:42:27;;;;;;;0.20;0.10;;;;;;;5.74;100.00;101870.44;5067319;28;20474;-55
2022/01/17 08:44:56;;;;;;;0.20;0.10;;;;;;;5.68;100.00;101867.72;5061768;28;20453;-55
2022/01/17 08:47:23;;;;;;;0.20;0.10;;;;;;;5.74;100.00;101865.16;5060237;28;20450;-55
2022/01/17 08:49:51;;;;;;;0.20;0.10;;;;;;;5.78;100.00;101869.66;5065272;28;20467;-55
2022/01/17 08:52:19;;;;;;;0.30;0.10;;;;;;;5.81;100.00;101874.97;5067183;28;20474;-55
2022/01/17 08:54:46;;;;;;;0.20;0.10;;;;;;;5.87;100.00;101860.09;5062521;28;20619;-55
2022/01/17 08:57:14;;;;;;;0.20;0.10;;;;;;;5.88;100.00;101859.25;5059281;28;20451;-55
2022/01/17 08:59:42;;;;;;;0.20;0.10;;;;;;;6.00;100.00;101865.63;5063679;28;20467;-55
2022/01/17 09:02:09;;;;;;;0.20;0.10;;;;;;;6.01;100.00;101872.66;5066563;28;20456;-55
2022/01/17 09:04:40;;;;;;;0.20;0.10;;;;;;;5.99;100.00;101877.03;5062716;28;20604;-54
2022/01/17 09:07:15;;;;;;;0.20;0.10;;;;;;;6.10;100.00;101892.19;5059663;28;20822;-55
2022/01/17 09:09:44;;;;;;;0.70;0.70;;;;;;;6.10;100.00;101912.41;5045115;28;20485;-55
2022/01/17 09:12:12;;;;;;;0.20;0.20;;;;;;;6.26;100.00;101924.09;5059112;28;20958;-55
2022/01/17 09:14:39;;;;;;;0.20;0.10;;;;;;;6.22;100.00;101936.38;5060117;28;20560;-55
2022/01/17 09:17:08;;;;;;;0.20;0.10;;;;;;;6.25;100.00;101941.69;5066500;28;20557;-55
2022/01/17 09:19:37;;;;;;;0.20;0.10;;;;;;;6.13;100.00;101941.50;5066372;28;20535;-55
2022/01/17 09:22:06;;;;;;;0.20;0.10;;;;;;;6.25;100.00;101936.41;5066049;28;20455;-55
2022/01/17 09:24:34;;;;;;;0.20;0.10;;;;;;;6.15;100.00;101940.66;5066289;28;20446;-55
2022/01/17 09:27:02;;;;;;;0.20;0.10;;;;;;;6.31;100.00;101927.72;5060833;28;20465;-55
2022/01/17 09:29:29;;;;;;;0.20;0.10;;;;;;;6.27;100.00;101923.22;5059406;28;20820;-55
2022/01/17 09:31:56;;;;;;;0.20;0.20;;;;;;;6.35;100.00;101932.16;5064814;28;20963;-55
2022/01/17 09:34:23;;;;;;;0.20;0.10;;;;;;;6.34;100.00;101936.56;5066254;28;20523;-55
2022/01/17 09:36:49;;;;;;;0.20;0.10;;;;;;;6.31;100.00;101922.44;5061012;28;20824;-55
2022/01/17 09:39:16;;;;;;;0.20;0.10;;;;;;;6.28;100.00;101936.44;5069971;28;20466;-55
2022/01/17 09:41:43;;;;;;;0.20;0.17;;;;;;;6.33;100.00;101942.72;5060837;28;20807;-54
2022/01/17 09:44:10;;;;;;;0.20;0.10;;;;;;;6.45;100.00;101952.56;5059351;28;20792;-55
2022/01/17 09:46:42;;;;;;;0.20;0.10;;;;;;;6.23;100.00;101949.59;5064322;28;20446;-55
2022/01/17 09:49:36;;;;;;;0.20;0.13;;;;;;;6.25;100.00;101965.44;5065973;28;20470;-55
2022/01/17 09:52:07;;;;;;;0.20;0.10;;;;;;;6.43;100.00;101971.00;5065427;28;20450;-55
2022/01/17 09:54:36;;;;;;;0.20;0.10;;;;;;;6.38;100.00;101964.78;5065225;28;20521;-55
2022/01/17 09:57:06;;;;;;;6.23;1.37;;;;;;;6.21;100.00;101968.91;5065851;28;20454;-55
2022/01/17 09:59:34;;;;;;;0.20;0.10;;;;;;;6.35;100.00;101983.22;5060707;28;20896;-55
2022/01/17 10:02:01;;;;;;;0.20;0.20;;;;;;;6.38;100.00;101978.00;5058679;28;20866;-55
2022/01/17 10:04:27;;;;;;;0.20;0.13;;;;;;;6.43;100.00;101968.38;5063855;28;20449;-55
2022/01/17 10:06:56;;;;;;;0.20;0.10;;;;;;;6.43;100.00;101983.34;5065736;28;21015;-55
2022/01/17 10:09:25;;;;;;;0.20;0.10;;;;;;;6.35;100.00;101971.78;5060910;28;20520;-55
2022/01/17 10:12:04;;;;;;;0.20;0.13;;;;;;;6.37;100.00;101964.75;5057170;28;20446;-55
2022/01/17 10:14:36;;;;;;;0.20;0.20;;;;;;;6.29;100.00;101967.28;5060367;28;20501;-55
2022/01/17 10:17:11;;;;;;;0.20;0.20;;;;;;;6.24;100.00;101966.31;5070960;28;20450;-55
2022/01/17 10:19:40;;;;;;;0.20;0.10;;;;;;;6.32;100.00;101959.44;5058802;28;20478;-55
2022/01/17 10:22:19;;;;;;;0.20;0.13;;;;;;;6.40;100.00;101959.53;5065019;28;20480;-55
2022/01/17 10:25:06;;;;;;;0.20;0.13;;;;;;;6.48;100.00;101964.06;5065643;28;20442;-55
2022/01/17 10:35:36;;;;;;;0.20;0.13;;;;;;;6.57;100.00;101971.22;5061316;28;20909;-55
2022/01/17 10:38:08;;;;;;;0.20;0.10;;;;;;;6.72;100.00;101950.34;5062302;28;20443;-55
2022/01/17 10:40:45;;;;;;;0.20;0.10;;;;;;;6.49;100.00;101954.41;5064042;28;20507;-55
2022/01/17 10:43:28;;;;;;;0.20;0.10;;;;;;;6.52;100.00;101936.81;5045372;28;20499;-55
2022/01/17 10:45:56;;;;;;;0.20;0.17;;;;;;;6.59;100.00;101940.47;5058651;28;20442;-55
2022/01/17 10:48:34;;;;;;;0.20;0.20;;;;;;;6.66;100.00;101938.78;5062425;28;20470;-54
2022/01/17 10:51:02;;;;;;;0.20;0.20;;;;;;;6.59;100.00;101947.50;5065365;28;20873;-55
2022/01/17 10:53:29;;;;;;;0.20;0.10;;;;;;;6.66;100.00;101960.81;5062948;28;20996;-55
2022/01/17 10:55:57;;;;;;;0.20;0.10;;;;;;;6.59;100.00;101953.66;5058461;28;20446;-55
2022/01/17 10:58:32;;;;;;;0.20;0.20;;;;;;;6.63;100.00;101966.06;5059865;28;21016;-55
2022/01/17 11:01:01;;;;;;;0.20;0.10;;;;;;;6.64;100.00;101959.91;5065277;28;20450;-55
2022/01/17 11:03:33;;;;;;;0.30;0.10;;;;;;;6.77;100.00;101985.63;5065426;28;20481;-54
2022/01/17 11:06:04;;;;;;;0.20;0.10;;;;;;;6.79;100.00;101983.00;5059502;28;20450;-55
2022/01/17 11:08:33;;;;;;;1.70;1.60;;;;;;;6.79;100.00;101983.91;5057004;28;20540;-55
2022/01/17 11:11:05;;;;;;;0.20;0.10;;;;;;;6.98;100.00;101974.44;5060485;28;20887;-55
2022/01/17 11:13:35;;;;;;;0.20;0.20;;;;;;;6.96;100.00;101976.19;5064886;28;20454;-55
2022/01/17 11:16:07;;;;;;;0.20;0.20;;;;;;;6.98;100.00;101957.69;5062942;28;20518;-55
2022/01/17 11:18:36;;;;;;;0.50;0.50;;;;;;;6.82;100.00;101962.78;5057979;28;20478;-55
2022/01/17 11:21:13;;;;;;;0.20;0.10;;;;;;;7.05;100.00;101962.22;5059580;28;20443;-55
2022/01/17 11:23:43;;;;;;;0.30;0.20;;;;;;;6.93;100.00;101960.28;5050552;28;20477;-55
2022/01/17 11:26:10;;;;;;;0.20;0.10;;;;;;;6.94;100.00;101956.78;5062024;28;20450;-55
2022/01/17 11:28:40;;;;;;;0.20;0.20;;;;;;;6.95;100.00;101952.38;5065846;28;20474;-55
2022/01/17 11:31:13;;;;;;;0.20;0.20;;;;;;;7.10;100.00;101957.84;5067484;28;20542;-55
2022/01/17 11:33:40;;;;;;;1.23;1.13;;;;;;;7.08;100.00;101952.56;5065059;28;20452;-55
2022/01/17 11:36:07;;;;;;;0.20;0.20;;;;;;;7.08;100.00;101959.59;5061661;28;20450;-55
2022/01/17 11:38:39;;;;;;;0.20;0.20;;;;;;;7.02;100.00;101955.13;5064942;28;20509;-55
2022/01/17 11:41:24;;;;;;;0.20;0.10;;;;;;;6.97;100.00;101963.84;5068522;28;20453;-55
2022/01/17 11:43:59;;;;;;;0.20;0.20;;;;;;;7.13;100.00;101963.22;5068240;28;20979;-55
2022/01/17 11:46:29;;;;;;;0.30;0.20;;;;;;;7.12;100.00;101956.13;5062682;28;20445;-55
2022/01/17 11:48:59;;;;;;;0.20;0.20;;;;;;;7.17;100.00;101935.94;5061212;28;20494;-55
2022/01/17 11:51:45;;;;;;;0.20;0.20;;;;;;;7.18;100.00;101934.16;5066391;28;20496;-55
2022/01/17 11:54:17;;;;;;;0.20;0.20;;;;;;;7.30;100.00;101934.31;5067872;28;20871;-55
2022/01/17 11:56:48;;;;;;;0.20;0.13;;;;;;;7.37;100.00;101926.44;5067005;28;20877;-55
2022/01/17 11:59:48;;;;;;;0.30;0.20;;;;;;;7.57;100.00;101917.84;5061082;28;20470;-55